createdAt,value
2023-04-27T00:01:53.220Z,11.10
2023-04-27T00:04:21.811Z,10.37
2023-04-27T00:06:50.629Z,13.73
2023-04-27T00:09:20.243Z,11.80
2023-04-27T00:11:48.500Z,11.90
2023-04-27T00:14:16.789Z,11.83
2023-04-27T00:16:45.309Z,9.37
2023-04-27T00:19:14.080Z,9.47
2023-04-27T00:21:42.871Z,9.77
2023-04-27T00:24:11.119Z,11.10
2023-04-27T00:26:40.698Z,12.13
2023-04-27T00:29:08.980Z,9.80
2023-04-27T00:31:37.272Z,10.60
2023-04-27T00:34:05.549Z,9.53
2023-04-27T00:36:35.103Z,12.87
2023-04-27T00:39:04.672Z,10.13
2023-04-27T00:41:33.786Z,8.40
2023-04-27T00:44:03.370Z,9.97
2023-04-27T00:46:31.798Z,10.50
2023-04-27T00:49:01.498Z,11.70
2023-04-27T00:51:30.266Z,11.63
2023-04-27T00:53:59.811Z,12.30
2023-04-27T00:56:28.108Z,13.03
2023-04-27T00:58:56.924Z,16.63
2023-04-27T01:01:28.001Z,12.73
2023-04-27T01:03:56.430Z,11.97
2023-04-27T01:06:24.871Z,15.03
2023-04-27T01:08:53.484Z,16.77
2023-04-27T01:11:23.524Z,12.20
2023-04-27T01:13:52.552Z,10.00
2023-04-27T01:16:21.133Z,10.80
2023-04-27T01:18:50.810Z,9.70
2023-04-27T01:21:19.081Z,13.07
2023-04-27T01:23:48.878Z,12.47
2023-04-27T01:26:17.483Z,12.07
2023-04-27T01:28:45.859Z,10.83
2023-04-27T01:31:15.061Z,11.30
2023-04-27T01:33:43.735Z,14.03
2023-04-27T01:36:12.072Z,14.53
2023-04-27T01:38:41.101Z,10.30
2023-04-27T01:41:10.755Z,10.97
2023-04-27T01:43:39.102Z,10.50
2023-04-27T01:46:08.120Z,11.03
2023-04-27T01:48:37.061Z,10.50
2023-04-27T01:51:05.689Z,10.73
2023-04-27T01:53:34.391Z,13.43
2023-04-27T01:56:03.528Z,14.40
2023-04-27T01:58:36.002Z,10.10
2023-04-27T02:01:04.600Z,9.23
2023-04-27T02:03:33.094Z,10.07
2023-04-27T02:06:01.681Z,13.07
2023-04-27T02:08:30.032Z,11.30
2023-04-27T02:10:58.344Z,10.47
2023-04-27T02:13:26.585Z,14.67
2023-04-27T02:15:56.870Z,11.90
2023-04-27T02:18:25.403Z,16.53
2023-04-27T02:20:53.678Z,8.73
2023-04-27T02:23:22.291Z,12.97
2023-04-27T02:25:50.574Z,13.73
2023-04-27T02:28:18.807Z,13.13
2023-04-27T02:30:47.803Z,10.33
2023-04-27T02:33:17.469Z,11.90
2023-04-27T02:35:46.084Z,14.63
2023-04-27T02:38:14.320Z,13.17
2023-04-27T02:40:44.327Z,13.03
2023-04-27T02:43:12.878Z,15.67
2023-04-27T02:45:41.461Z,12.90
2023-04-27T02:48:09.813Z,12.50
2023-04-27T02:50:43.176Z,14.30
2023-04-27T02:53:12.042Z,13.87
2023-04-27T02:55:40.530Z,14.20
2023-04-27T02:58:08.805Z,18.63
2023-04-27T03:00:37.424Z,15.10
2023-04-27T03:03:06.577Z,15.43
2023-04-27T03:05:35.206Z,11.73
2023-04-27T03:08:05.060Z,10.73
2023-04-27T03:10:33.431Z,12.23
2023-04-27T03:13:01.660Z,15.23
2023-04-27T03:15:29.929Z,11.73
2023-04-27T03:17:58.309Z,12.33
2023-04-27T03:20:26.783Z,14.43
2023-04-27T03:22:55.430Z,11.73
2023-04-27T03:25:25.414Z,11.60
2023-04-27T03:27:53.689Z,9.17
2023-04-27T03:30:23.936Z,12.13
2023-04-27T03:32:52.278Z,11.07
2023-04-27T03:35:20.819Z,10.73
2023-04-27T03:37:49.076Z,14.40
2023-04-27T03:40:17.459Z,12.10
2023-04-27T03:42:47.124Z,15.10
2023-04-27T03:45:16.793Z,10.97
2023-04-27T03:47:45.329Z,12.53
2023-04-27T03:50:16.325Z,11.97
2023-04-27T03:52:44.747Z,10.20
2023-04-27T03:55:13.560Z,11.43
2023-04-27T03:57:43.568Z,13.97
2023-04-27T04:00:14.794Z,11.63
2023-04-27T04:02:44.046Z,12.10
2023-04-27T04:05:14.857Z,11.53
2023-04-27T04:07:45.992Z,10.43
2023-04-27T04:10:14.559Z,9.00
2023-04-27T04:12:42.970Z,8.87
2023-04-27T04:15:11.552Z,10.17
2023-04-27T04:17:41.478Z,9.77
2023-04-27T04:20:10.859Z,8.53
2023-04-27T04:22:39.513Z,10.87
2023-04-27T04:25:09.662Z,11.57
2023-04-27T04:27:38.564Z,9.20
2023-04-27T04:30:08.504Z,10.97
2023-04-27T04:32:38.869Z,10.00
2023-04-27T04:35:09.626Z,9.37
2023-04-27T04:37:38.087Z,10.77
2023-04-27T04:40:10.117Z,11.23
2023-04-27T04:42:40.548Z,12.60
2023-04-27T04:45:11.079Z,14.17
2023-04-27T04:47:39.713Z,9.23
2023-04-27T04:50:10.648Z,10.37
2023-04-27T04:52:39.049Z,12.93
2023-04-27T04:55:08.191Z,13.57
2023-04-27T04:57:36.738Z,11.37
2023-04-27T05:00:12.462Z,13.07
2023-04-27T05:02:41.711Z,12.70
2023-04-27T05:05:11.746Z,11.50
2023-04-27T05:07:40.531Z,14.77
2023-04-27T05:10:09.490Z,12.90
2023-04-27T05:12:37.751Z,14.83
2023-04-27T05:15:06.959Z,15.20
2023-04-27T05:17:35.178Z,15.07
2023-04-27T05:20:05.015Z,15.83
2023-04-27T05:22:34.901Z,12.63
2023-04-27T05:25:03.486Z,14.33
2023-04-27T05:27:31.839Z,10.17
2023-04-27T05:30:00.194Z,10.50
2023-04-27T05:32:28.414Z,11.90
2023-04-27T05:34:56.631Z,13.27
2023-04-27T05:37:24.992Z,10.20
2023-04-27T05:39:54.613Z,14.60
2023-04-27T05:42:22.815Z,13.57
2023-04-27T05:44:51.175Z,13.97
2023-04-27T05:47:19.390Z,11.30
2023-04-27T05:49:51.975Z,15.03
2023-04-27T05:52:20.283Z,14.30
2023-04-27T05:54:48.916Z,11.97
2023-04-27T05:57:18.736Z,14.23
2023-04-27T05:59:46.957Z,9.30
2023-04-27T06:02:17.665Z,11.87
2023-04-27T06:04:46.548Z,11.03
2023-04-27T06:07:16.524Z,15.73
2023-04-27T06:09:44.821Z,11.30
2023-04-27T06:12:13.134Z,12.17
2023-04-27T06:14:42.717Z,14.07
2023-04-27T06:17:11.216Z,11.70
2023-04-27T06:19:39.451Z,14.07
2023-04-27T06:22:07.741Z,11.97
2023-04-27T06:24:36.590Z,14.00
2023-04-27T06:27:05.001Z,13.03
2023-04-27T06:29:33.382Z,14.70
2023-04-27T06:32:06.523Z,14.67
2023-04-27T06:34:35.288Z,13.47
2023-04-27T06:37:03.547Z,14.50
2023-04-27T06:39:32.142Z,11.67
2023-04-27T06:42:00.424Z,12.60
2023-04-27T06:44:28.634Z,14.53
2023-04-27T06:46:56.862Z,14.23
2023-04-27T06:49:26.759Z,15.63
2023-04-27T06:51:55.084Z,17.87
2023-04-27T06:54:23.317Z,15.20
2023-04-27T06:56:51.776Z,14.33
2023-04-27T06:59:20.065Z,14.30
2023-04-27T07:01:48.425Z,19.20
2023-04-27T07:04:16.917Z,16.67
2023-04-27T07:06:46.634Z,17.40
2023-04-27T07:09:26.524Z,16.20
2023-04-27T07:11:55.756Z,15.73
2023-04-27T07:14:24.045Z,18.00
2023-04-27T07:16:52.293Z,15.53
2023-04-27T07:19:20.632Z,16.23
2023-04-27T07:21:50.352Z,14.43
2023-04-27T07:24:18.568Z,19.57
2023-04-27T07:26:46.927Z,15.27
2023-04-27T07:29:26.502Z,16.50
2023-04-27T07:31:56.726Z,19.63
2023-04-27T07:34:25.189Z,16.50
2023-04-27T07:36:55.102Z,18.47
2023-04-27T07:39:24.037Z,16.37
2023-04-27T07:41:52.709Z,16.50
2023-04-27T07:44:21.112Z,18.20
2023-04-27T07:46:50.193Z,17.67
2023-04-27T07:49:18.497Z,17.33
2023-04-27T07:51:46.935Z,15.70
2023-04-27T07:54:16.487Z,20.50
2023-04-27T07:56:44.810Z,18.23
2023-04-27T07:59:14.893Z,15.83
2023-04-27T08:01:43.409Z,20.00
2023-04-27T08:04:13.059Z,17.90
2023-04-27T08:06:42.099Z,20.07
2023-04-27T08:09:11.319Z,21.10
2023-04-27T08:11:41.325Z,17.47
2023-04-27T08:14:13.611Z,19.70
2023-04-27T08:16:42.781Z,19.30
2023-04-27T08:19:11.692Z,17.17
2023-04-27T08:21:40.165Z,17.47
2023-04-27T08:24:08.674Z,19.13
2023-04-27T08:26:36.992Z,20.07
2023-04-27T08:29:19.499Z,14.83
2023-04-27T08:31:56.752Z,19.30
2023-04-27T08:34:25.365Z,19.73
2023-04-27T08:36:53.995Z,17.60
2023-04-27T08:39:22.510Z,16.80
2023-04-27T08:41:50.817Z,19.13
2023-04-27T08:44:20.638Z,17.77
2023-04-27T08:46:52.325Z,15.37
2023-04-27T08:49:21.716Z,19.23
2023-04-27T08:51:50.326Z,15.50
2023-04-27T08:54:20.087Z,17.23
2023-04-27T08:56:48.324Z,20.90
2023-04-27T08:59:17.842Z,13.03
2023-04-27T09:01:49.486Z,18.20
2023-04-27T09:04:19.841Z,17.57
2023-04-27T09:06:49.780Z,14.03
2023-04-27T09:09:25.218Z,14.37
2023-04-27T09:11:53.593Z,14.63
2023-04-27T09:14:23.663Z,13.93
2023-04-27T09:16:59.326Z,15.00
2023-04-27T09:19:28.691Z,15.80
2023-04-27T09:22:07.810Z,16.20
2023-04-27T09:24:36.221Z,11.67
2023-04-27T09:27:05.155Z,14.20
2023-04-27T09:29:34.919Z,13.30
2023-04-27T09:32:17.244Z,11.97
2023-04-27T09:34:46.459Z,13.20
2023-04-27T09:37:15.808Z,13.27
2023-04-27T09:39:44.301Z,12.03
2023-04-27T09:42:13.415Z,16.77
2023-04-27T09:44:41.655Z,9.87
2023-04-27T09:47:12.193Z,9.57
2023-04-27T09:49:43.350Z,11.80
2023-04-27T09:52:11.799Z,13.37
2023-04-27T09:54:40.934Z,12.87
2023-04-27T09:57:18.958Z,13.97
2023-04-27T10:00:00.912Z,12.70
2023-04-27T10:02:49.965Z,12.13
2023-04-27T10:05:37.144Z,9.63
2023-04-27T10:08:07.200Z,10.03
2023-04-27T10:10:44.639Z,11.70
2023-04-27T10:13:22.943Z,10.50
2023-04-27T10:15:52.418Z,10.53
2023-04-27T10:18:30.637Z,11.00
2023-04-27T10:21:10.736Z,11.20
2023-04-27T10:23:48.434Z,13.97
2023-04-27T10:26:23.639Z,9.63
2023-04-27T10:28:59.740Z,17.60
2023-04-27T10:31:31.326Z,12.90
2023-04-27T10:34:11.625Z,13.20
2023-04-27T10:36:41.267Z,10.10
2023-04-27T10:39:17.617Z,10.83
2023-04-27T10:41:54.344Z,12.07
2023-04-27T10:44:29.562Z,10.73
2023-04-27T10:46:59.816Z,9.60
2023-04-27T10:49:30.386Z,12.37
2023-04-27T10:52:00.825Z,10.80
2023-04-27T10:54:29.612Z,13.50
2023-04-27T10:57:03.883Z,11.53
2023-04-27T10:59:32.309Z,12.07
2023-04-27T11:02:00.679Z,12.98
2023-04-27T11:04:41.910Z,14.70
2023-04-27T11:07:11.298Z,12.57
2023-04-27T11:09:40.641Z,12.40
2023-04-27T11:12:10.241Z,11.97
2023-04-27T11:14:38.710Z,10.68
2023-04-27T11:17:06.986Z,12.68
2023-04-27T11:19:47.917Z,11.50
2023-04-27T11:22:17.860Z,11.03
2023-04-27T11:24:50.571Z,12.68
2023-04-27T11:27:20.039Z,10.52
2023-04-27T11:29:48.300Z,11.20
2023-04-27T11:32:26.612Z,10.45
2023-04-27T11:34:57.797Z,10.37
2023-04-27T11:37:28.577Z,11.30
2023-04-27T11:40:01.438Z,13.63
2023-04-27T11:42:30.914Z,11.27
2023-04-27T11:45:01.309Z,12.33
2023-04-27T11:47:30.831Z,14.30
2023-04-27T11:50:04.865Z,12.20
2023-04-27T11:52:34.527Z,9.32
2023-04-27T11:55:04.689Z,10.32
2023-04-27T11:57:35.875Z,11.63
2023-04-27T12:00:10.995Z,14.93
2023-04-27T12:02:44.142Z,12.55
2023-04-27T12:05:14.761Z,13.10
2023-04-27T12:07:43.535Z,12.68
2023-04-27T12:10:12.515Z,11.43
2023-04-27T12:12:40.750Z,10.27
2023-04-27T12:15:10.227Z,10.45
2023-04-27T12:17:39.274Z,11.60
2023-04-27T12:20:08.779Z,8.93
2023-04-27T12:22:38.745Z,13.45
2023-04-27T12:25:07.734Z,13.63
2023-04-27T12:27:36.054Z,12.15
2023-04-27T12:30:04.857Z,11.15
2023-04-27T12:32:33.212Z,10.05
2023-04-27T12:35:01.637Z,10.45
2023-04-27T12:37:30.052Z,8.73
2023-04-27T12:39:59.886Z,10.50
2023-04-27T12:42:28.182Z,9.68
2023-04-27T12:44:56.955Z,9.05
2023-04-27T12:47:42.986Z,11.98
2023-04-27T12:50:13.846Z,12.43
2023-04-27T12:52:42.078Z,11.20
2023-04-27T12:55:21.493Z,9.07
2023-04-27T12:58:00.244Z,12.25
2023-04-27T13:00:29.499Z,12.20
2023-04-27T13:02:58.432Z,8.63
2023-04-27T13:05:27.570Z,10.50
2023-04-27T13:07:56.981Z,11.57
2023-04-27T13:10:26.610Z,12.05
2023-04-27T13:12:55.808Z,9.90
2023-04-27T13:15:24.024Z,12.27
2023-04-27T13:17:53.239Z,10.48
2023-04-27T13:20:21.763Z,10.93
2023-04-27T13:22:50.040Z,10.07
2023-04-27T13:25:20.136Z,11.00
2023-04-27T13:27:50.231Z,12.60
2023-04-27T13:30:18.531Z,10.23
2023-04-27T13:32:46.807Z,11.43
2023-04-27T13:35:15.868Z,9.00
2023-04-27T13:37:44.301Z,9.90
2023-04-27T13:40:13.114Z,9.52
2023-04-27T13:42:41.707Z,11.15
2023-04-27T13:45:12.126Z,8.88
2023-04-27T13:47:40.930Z,9.90
2023-04-27T13:50:11.571Z,9.27
2023-04-27T13:52:42.650Z,9.88
2023-04-27T13:55:12.093Z,9.68
2023-04-27T13:57:40.546Z,11.43
2023-04-27T14:00:11.521Z,9.50
2023-04-27T14:02:41.481Z,10.18
2023-04-27T14:05:10.321Z,9.85
2023-04-27T14:07:38.605Z,10.20
2023-04-27T14:10:08.297Z,10.30
2023-04-27T14:12:37.157Z,10.60
2023-04-27T14:15:06.231Z,7.43
2023-04-27T14:17:34.694Z,8.98
2023-04-27T14:20:07.099Z,8.70
2023-04-27T14:22:35.982Z,9.73
2023-04-27T14:25:04.282Z,12.45
2023-04-27T14:27:32.629Z,13.32
2023-04-27T14:30:02.144Z,10.20
2023-04-27T14:32:30.407Z,10.82
2023-04-27T14:34:58.620Z,8.93
2023-04-27T14:37:28.240Z,9.75
2023-04-27T14:39:57.836Z,9.15
2023-04-27T14:42:26.057Z,10.18
2023-04-27T14:44:54.259Z,10.25
2023-04-27T14:47:22.720Z,11.38
2023-04-27T14:49:51.292Z,9.05
2023-04-27T14:52:19.500Z,10.68
2023-04-27T14:54:49.132Z,9.82
2023-04-27T14:57:17.561Z,11.23
2023-04-27T14:59:45.768Z,9.52
2023-04-27T15:02:14.078Z,12.25
2023-04-27T15:04:42.357Z,9.25
2023-04-27T15:07:11.102Z,9.73
2023-04-27T15:09:39.354Z,9.55
2023-04-27T15:12:09.893Z,10.68
2023-04-27T15:14:38.184Z,10.93
2023-04-27T15:17:06.541Z,8.13
2023-04-27T15:19:35.046Z,9.70
2023-04-27T15:22:03.297Z,10.70
2023-04-27T15:24:31.655Z,9.05
2023-04-27T15:26:59.891Z,10.27
2023-04-27T15:29:29.483Z,9.93
2023-04-27T15:31:57.750Z,12.07
2023-04-27T15:34:25.949Z,10.88
2023-04-27T15:36:54.158Z,12.95
2023-04-27T15:39:22.410Z,10.60
2023-04-27T15:41:50.772Z,10.95
2023-04-27T15:44:19.026Z,10.77
2023-04-27T15:46:48.784Z,11.55
2023-04-27T15:49:17.005Z,11.02
2023-04-27T15:51:45.258Z,10.15
2023-04-27T15:54:13.461Z,10.07
2023-04-27T15:56:41.698Z,11.40
2023-04-27T15:59:09.965Z,12.88
2023-04-27T16:01:38.279Z,9.82
2023-04-27T16:04:08.135Z,11.55
2023-04-27T16:06:37.515Z,9.82
2023-04-27T16:09:08.996Z,11.35
2023-04-27T16:11:38.702Z,11.15
2023-04-27T16:14:07.031Z,11.27
2023-04-27T16:16:35.433Z,9.40
2023-04-27T16:19:03.844Z,8.88
2023-04-27T16:21:34.020Z,10.35
2023-04-27T16:24:02.302Z,11.32
2023-04-27T16:26:30.570Z,12.13
2023-04-27T16:28:58.897Z,9.88
2023-04-27T16:31:27.220Z,11.15
2023-04-27T16:33:55.598Z,11.05
2023-04-27T16:36:24.727Z,11.02
2023-04-27T16:38:54.412Z,12.02
2023-04-27T16:41:22.869Z,10.27
2023-04-27T16:43:51.455Z,10.57
2023-04-27T16:46:19.821Z,9.00
2023-04-27T16:48:48.221Z,10.85
2023-04-27T16:51:16.501Z,10.30
2023-04-27T16:53:44.675Z,8.52
2023-04-27T16:56:14.458Z,11.15
2023-04-27T16:58:42.731Z,10.63
2023-04-27T17:01:10.935Z,12.07
2023-04-27T17:03:39.283Z,13.52
2023-04-27T17:06:08.116Z,10.50
2023-04-27T17:08:36.380Z,11.80
2023-04-27T17:11:09.179Z,10.02
2023-04-27T17:13:39.018Z,12.10
2023-04-27T17:16:11.650Z,10.75
2023-04-27T17:18:40.075Z,12.90
2023-04-27T17:21:08.301Z,9.52
2023-04-27T17:23:36.877Z,15.00
2023-04-27T17:26:07.912Z,11.05
2023-04-27T17:28:37.993Z,11.75
2023-04-27T17:31:06.313Z,10.25
2023-04-27T17:33:34.550Z,11.70
2023-04-27T17:36:02.797Z,11.80
2023-04-27T17:38:31.231Z,10.85
2023-04-27T17:40:59.493Z,10.70
2023-04-27T17:43:27.759Z,12.00
2023-04-27T17:45:57.497Z,12.18
2023-04-27T17:48:25.864Z,12.38
2023-04-27T17:50:54.733Z,15.63
2023-04-27T17:53:22.989Z,10.93
2023-04-27T17:55:52.710Z,11.30
2023-04-27T17:58:21.018Z,14.10
2023-04-27T18:00:49.489Z,12.77
2023-04-27T18:03:19.353Z,14.50
2023-04-27T18:05:47.804Z,12.43
2023-04-27T18:08:16.098Z,11.80
2023-04-27T18:10:44.388Z,10.73
2023-04-27T18:13:13.043Z,11.55
2023-04-27T18:15:41.354Z,11.85
2023-04-27T18:18:10.526Z,11.73
2023-04-27T18:20:44.719Z,13.02
2023-04-27T18:23:13.019Z,12.77
2023-04-27T18:25:41.247Z,12.07
2023-04-27T18:28:09.512Z,12.73
2023-04-27T18:30:37.753Z,11.17
2023-04-27T18:33:06.273Z,13.03
2023-04-27T18:35:34.658Z,20.90
2023-04-27T18:38:04.327Z,11.93
2023-04-27T18:40:36.162Z,13.80
2023-04-27T18:43:04.435Z,13.07
2023-04-27T18:45:32.791Z,12.53
2023-04-27T18:48:01.244Z,14.67
2023-04-27T18:50:29.716Z,10.87
2023-04-27T18:52:59.888Z,12.30
2023-04-27T18:55:29.504Z,10.93
2023-04-27T18:57:57.785Z,13.47
2023-04-27T19:00:26.364Z,13.57
2023-04-27T19:02:54.854Z,17.07
2023-04-27T19:05:23.449Z,11.27
2023-04-27T19:07:51.951Z,16.03
2023-04-27T19:10:20.374Z,17.30
2023-04-27T19:12:49.973Z,14.70
2023-04-27T19:15:18.539Z,13.40
2023-04-27T19:17:48.678Z,13.07
2023-04-27T19:20:21.627Z,12.17
2023-04-27T19:22:49.838Z,16.03
2023-04-27T19:25:18.216Z,14.43
2023-04-27T19:27:46.961Z,11.17
2023-04-27T19:30:16.753Z,13.33
2023-04-27T19:32:45.058Z,14.43
2023-04-27T19:35:14.711Z,14.03
2023-04-27T19:37:42.978Z,12.30
2023-04-27T19:40:12.334Z,12.90
2023-04-27T19:42:40.698Z,13.03
2023-04-27T19:45:09.684Z,13.63
2023-04-27T19:47:39.519Z,13.47
2023-04-27T19:50:08.593Z,13.13
2023-04-27T19:52:36.891Z,10.70
2023-04-27T19:55:05.681Z,16.07
2023-04-27T19:57:34.272Z,15.33
2023-04-27T20:00:02.637Z,11.40
2023-04-27T20:02:43.326Z,16.07
2023-04-27T20:05:13.490Z,12.93
2023-04-27T20:07:42.661Z,13.63
2023-04-27T20:10:11.180Z,13.60
2023-04-27T20:12:55.330Z,14.13
2023-04-27T20:15:24.285Z,10.67
2023-04-27T20:17:54.078Z,13.87
2023-04-27T20:20:22.743Z,11.60
2023-04-27T20:22:51.399Z,12.07
2023-04-27T20:25:20.336Z,13.77
2023-04-27T20:27:48.670Z,12.00
2023-04-27T20:30:17.743Z,11.63
2023-04-27T20:32:46.658Z,12.33
2023-04-27T20:35:16.344Z,14.17
2023-04-27T20:37:44.617Z,13.60
2023-04-27T20:40:17.526Z,13.10
2023-04-27T20:42:46.422Z,14.13
2023-04-27T20:45:14.693Z,12.67
2023-04-27T20:47:43.244Z,18.00
2023-04-27T20:50:11.937Z,14.13
2023-04-27T20:52:41.606Z,15.87
2023-04-27T20:55:10.199Z,14.87
2023-04-27T20:57:38.436Z,12.90
2023-04-27T21:00:09.221Z,14.17
2023-04-27T21:02:37.761Z,16.40
2023-04-27T21:05:06.407Z,13.87
2023-04-27T21:07:37.663Z,13.20
2023-04-27T21:10:08.544Z,13.10
2023-04-27T21:12:36.842Z,14.30
2023-04-27T21:15:05.620Z,14.77
2023-04-27T21:17:34.544Z,17.23
2023-04-27T21:20:02.970Z,15.30
2023-04-27T21:22:31.330Z,15.87
2023-04-27T21:24:59.527Z,15.13
2023-04-27T21:27:30.678Z,15.07
2023-04-27T21:30:00.143Z,15.50
2023-04-27T21:32:28.453Z,15.63
2023-04-27T21:34:56.706Z,13.60
2023-04-27T21:37:24.976Z,16.03
2023-04-27T21:39:53.252Z,17.13
2023-04-27T21:42:21.512Z,15.37
2023-04-27T21:44:51.274Z,14.03
2023-04-27T21:47:19.613Z,13.80
2023-04-27T21:49:47.815Z,18.40
2023-04-27T21:52:16.157Z,17.43
2023-04-27T21:54:44.418Z,16.30
2023-04-27T21:57:12.645Z,20.37
2023-04-27T21:59:40.973Z,16.97
2023-04-27T22:02:10.888Z,16.67
2023-04-27T22:04:39.633Z,17.07
2023-04-27T22:07:08.959Z,16.73
2023-04-27T22:09:37.489Z,15.43
2023-04-27T22:12:06.560Z,17.17
2023-04-27T22:14:34.986Z,16.23
2023-04-27T22:17:03.232Z,15.07
2023-04-27T22:19:32.906Z,16.27
2023-04-27T22:22:01.235Z,18.53
2023-04-27T22:24:29.511Z,17.43
2023-04-27T22:26:57.737Z,18.93
2023-04-27T22:29:26.725Z,18.13
2023-04-27T22:31:55.232Z,16.97
2023-04-27T22:34:23.738Z,19.70
2023-04-27T22:36:54.174Z,18.20
2023-04-27T22:39:22.880Z,17.80
2023-04-27T22:41:51.561Z,18.50
2023-04-27T22:44:19.784Z,16.97
2023-04-27T22:46:48.087Z,18.27
2023-04-27T22:49:17.335Z,18.93
2023-04-27T22:51:47.201Z,18.03
2023-04-27T22:54:17.333Z,19.20
2023-04-27T22:56:45.909Z,19.97
2023-04-27T22:59:14.165Z,16.37
2023-04-27T23:01:42.439Z,20.73
2023-04-27T23:04:12.280Z,20.07
2023-04-27T23:06:40.921Z,19.13
2023-04-27T23:09:09.157Z,20.30
2023-04-27T23:11:40.257Z,18.50
2023-04-27T23:14:08.627Z,18.97
2023-04-27T23:16:37.305Z,21.30
2023-04-27T23:19:05.644Z,21.10
2023-04-27T23:21:33.835Z,18.63
2023-04-27T23:24:02.172Z,17.37
2023-04-27T23:26:30.498Z,16.40
2023-04-27T23:29:00.141Z,23.90
2023-04-27T23:31:28.459Z,19.23
2023-04-27T23:33:56.710Z,18.00
2023-04-27T23:36:25.047Z,18.37
2023-04-27T23:38:54.032Z,16.13
2023-04-27T23:41:23.361Z,20.50
2023-04-27T23:43:51.636Z,20.03
2023-04-27T23:46:21.295Z,19.77
2023-04-27T23:48:49.627Z,16.93
2023-04-27T23:51:17.878Z,16.23
2023-04-27T23:53:46.164Z,19.97
2023-04-27T23:56:18.601Z,23.17
2023-04-27T23:58:46.928Z,16.97
